sensor_id;sensor_type;location;lat;lon;timestamp;P1;durP1;ratioP1;P2;durP2;ratioP2
4132;SDS011;2080;51.038;7.008;2022-08-20T00:00:29;456.93;;;375.60;;
4132;SDS011;2080;51.038;7.008;2022-08-20T00:03:01;494.63;;;418.57;;
4132;SDS011;2080;51.038;7.008;2022-08-20T00:05:39;393.90;;;255.03;;
4132;SDS011;2080;51.038;7.008;2022-08-20T00:08:09;762.17;;;690.53;;
4132;SDS011;2080;51.038;7.008;2022-08-20T00:10:40;757.27;;;685.67;;
4132;SDS011;2080;51.038;7.008;2022-08-20T00:13:10;845.10;;;767.60;;
4132;SDS011;2080;51.038;7.008;2022-08-20T00:15:39;438.80;;;350.77;;
4132;SDS011;2080;51.038;7.008;2022-08-20T00:18:06;465.40;;;374.87;;
4132;SDS011;2080;51.038;7.008;2022-08-20T00:20:33;487.17;;;423.93;;
4132;SDS011;2080;51.038;7.008;2022-08-20T00:23:04;423.17;;;318.80;;
4132;SDS011;2080;51.038;7.008;2022-08-20T00:25:30;557.23;;;498.90;;
4132;SDS011;2080;51.038;7.008;2022-08-20T00:27:56;539.20;;;474.10;;
4132;SDS011;2080;51.038;7.008;2022-08-20T00:30:23;499.60;;;430.40;;
4132;SDS011;2080;51.038;7.008;2022-08-20T00:32:50;413.17;;;275.30;;
4132;SDS011;2080;51.038;7.008;2022-08-20T00:35:22;448.33;;;334.20;;
4132;SDS011;2080;51.038;7.008;2022-08-20T00:37:50;507.20;;;453.30;;
4132;SDS011;2080;51.038;7.008;2022-08-20T00:40:17;471.30;;;413.23;;
4132;SDS011;2080;51.038;7.008;2022-08-20T00:42:48;552.17;;;493.83;;
4132;SDS011;2080;51.038;7.008;2022-08-20T00:45:19;447.13;;;367.13;;
4132;SDS011;2080;51.038;7.008;2022-08-20T00:47:45;618.97;;;554.80;;
4132;SDS011;2080;51.038;7.008;2022-08-20T00:50:14;451.93;;;376.03;;
4132;SDS011;2080;51.038;7.008;2022-08-20T00:52:44;550.80;;;493.27;;
4132;SDS011;2080;51.038;7.008;2022-08-20T00:55:15;509.27;;;446.27;;
4132;SDS011;2080;51.038;7.008;2022-08-20T00:57:47;457.43;;;382.27;;
4132;SDS011;2080;51.038;7.008;2022-08-20T01:00:29;444.50;;;346.00;;
4132;SDS011;2080;51.038;7.008;2022-08-20T01:02:59;459.37;;;392.67;;
4132;SDS011;2080;51.038;7.008;2022-08-20T01:05:26;416.27;;;298.70;;
4132;SDS011;2080;51.038;7.008;2022-08-20T01:07:54;449.50;;;372.60;;
4132;SDS011;2080;51.038;7.008;2022-08-20T01:10:26;397.13;;;261.17;;
4132;SDS011;2080;51.038;7.008;2022-08-20T01:12:56;468.57;;;403.33;;
4132;SDS011;2080;51.038;7.008;2022-08-20T01:15:28;470.57;;;416.40;;
4132;SDS011;2080;51.038;7.008;2022-08-20T01:17:56;424.67;;;322.93;;
4132;SDS011;2080;51.038;7.008;2022-08-20T01:20:24;462.90;;;386.27;;
4132;SDS011;2080;51.038;7.008;2022-08-20T01:31:26;458.63;;;381.27;;
4132;SDS011;2080;51.038;7.008;2022-08-20T01:33:54;465.50;;;398.53;;
4132;SDS011;2080;51.038;7.008;2022-08-20T01:36:23;562.93;;;503.10;;
4132;SDS011;2080;51.038;7.008;2022-08-20T01:38:57;493.40;;;439.20;;
4132;SDS011;2080;51.038;7.008;2022-08-20T01:44:08;437.97;;;336.93;;
4132;SDS011;2080;51.038;7.008;2022-08-20T01:46:37;420.80;;;303.30;;
4132;SDS011;2080;51.038;7.008;2022-08-20T01:49:43;443.13;;;356.93;;
4132;SDS011;2080;51.038;7.008;2022-08-20T01:52:00;388.43;;;251.03;;
4132;SDS011;2080;51.038;7.008;2022-08-20T01:54:29;393.53;;;245.50;;
4132;SDS011;2080;51.038;7.008;2022-08-20T01:57:02;385.97;;;235.00;;
4132;SDS011;2080;51.038;7.008;2022-08-20T01:59:37;396.90;;;257.03;;
4132;SDS011;2080;51.038;7.008;2022-08-20T02:02:06;427.07;;;315.53;;
4132;SDS011;2080;51.038;7.008;2022-08-20T02:04:33;442.20;;;348.87;;
4132;SDS011;2080;51.038;7.008;2022-08-20T02:07:00;451.97;;;368.27;;
4132;SDS011;2080;51.038;7.008;2022-08-20T02:09:29;438.13;;;342.03;;
4132;SDS011;2080;51.038;7.008;2022-08-20T02:12:00;437.13;;;343.83;;
4132;SDS011;2080;51.038;7.008;2022-08-20T02:14:29;445.90;;;361.30;;
4132;SDS011;2080;51.038;7.008;2022-08-20T02:16:55;436.70;;;336.77;;
4132;SDS011;2080;51.038;7.008;2022-08-20T02:19:36;436.23;;;335.60;;
4132;SDS011;2080;51.038;7.008;2022-08-20T02:24:58;404.47;;;272.93;;
4132;SDS011;2080;51.038;7.008;2022-08-20T02:27:23;411.37;;;284.17;;
4132;SDS011;2080;51.038;7.008;2022-08-20T02:29:49;402.03;;;241.67;;
4132;SDS011;2080;51.038;7.008;2022-08-20T02:32:18;409.07;;;273.90;;
4132;SDS011;2080;51.038;7.008;2022-08-20T02:34:44;386.77;;;224.13;;
4132;SDS011;2080;51.038;7.008;2022-08-20T02:37:12;425.57;;;322.70;;
4132;SDS011;2080;51.038;7.008;2022-08-20T02:39:42;409.63;;;282.53;;
4132;SDS011;2080;51.038;7.008;2022-08-20T02:42:09;414.67;;;295.50;;
4132;SDS011;2080;51.038;7.008;2022-08-20T02:44:36;438.47;;;353.47;;
4132;SDS011;2080;51.038;7.008;2022-08-20T02:47:07;448.53;;;363.03;;
4132;SDS011;2080;51.038;7.008;2022-08-20T02:49:32;441.13;;;346.37;;
4132;SDS011;2080;51.038;7.008;2022-08-20T02:52:00;443.60;;;358.90;;
4132;SDS011;2080;51.038;7.008;2022-08-20T02:54:26;449.27;;;375.07;;
4132;SDS011;2080;51.038;7.008;2022-08-20T02:56:51;455.97;;;387.33;;
4132;SDS011;2080;51.038;7.008;2022-08-20T02:59:16;432.27;;;330.60;;
4132;SDS011;2080;51.038;7.008;2022-08-20T03:01:44;393.20;;;252.87;;
4132;SDS011;2080;51.038;7.008;2022-08-20T03:04:12;416.63;;;298.00;;
4132;SDS011;2080;51.038;7.008;2022-08-20T03:06:37;458.00;;;387.63;;
4132;SDS011;2080;51.038;7.008;2022-08-20T03:09:03;423.13;;;311.17;;
4132;SDS011;2080;51.038;7.008;2022-08-20T03:11:30;405.47;;;270.53;;
4132;SDS011;2080;51.038;7.008;2022-08-20T03:13:56;416.03;;;304.50;;
4132;SDS011;2080;51.038;7.008;2022-08-20T03:16:22;410.43;;;289.93;;
4132;SDS011;2080;51.038;7.008;2022-08-20T03:18:49;408.17;;;270.17;;
4132;SDS011;2080;51.038;7.008;2022-08-20T03:21:15;423.33;;;308.50;;
4132;SDS011;2080;51.038;7.008;2022-08-20T03:23:41;433.10;;;342.27;;
4132;SDS011;2080;51.038;7.008;2022-08-20T03:26:07;420.53;;;311.37;;
4132;SDS011;2080;51.038;7.008;2022-08-20T03:28:38;402.50;;;262.47;;
4132;SDS011;2080;51.038;7.008;2022-08-20T03:31:03;426.90;;;323.10;;
4132;SDS011;2080;51.038;7.008;2022-08-20T03:33:29;414.73;;;286.10;;
4132;SDS011;2080;51.038;7.008;2022-08-20T03:35:58;407.63;;;283.90;;
4132;SDS011;2080;51.038;7.008;2022-08-20T03:38:28;418.83;;;310.80;;
4132;SDS011;2080;51.038;7.008;2022-08-20T03:40:53;377.83;;;222.73;;
4132;SDS011;2080;51.038;7.008;2022-08-20T03:43:21;371.20;;;204.40;;
4132;SDS011;2080;51.038;7.008;2022-08-20T03:45:49;391.40;;;257.87;;
4132;SDS011;2080;51.038;7.008;2022-08-20T03:48:16;391.73;;;256.87;;
4132;SDS011;2080;51.038;7.008;2022-08-20T03:50:44;385.80;;;236.07;;
4132;SDS011;2080;51.038;7.008;2022-08-20T03:53:11;362.80;;;193.30;;
4132;SDS011;2080;51.038;7.008;2022-08-20T03:55:40;374.40;;;210.27;;
4132;SDS011;2080;51.038;7.008;2022-08-20T03:58:10;401.00;;;270.33;;
4132;SDS011;2080;51.038;7.008;2022-08-20T04:00:46;401.90;;;274.07;;
4132;SDS011;2080;51.038;7.008;2022-08-20T04:03:14;381.20;;;237.87;;
4132;SDS011;2080;51.038;7.008;2022-08-20T04:05:43;435.47;;;333.07;;
4132;SDS011;2080;51.038;7.008;2022-08-20T04:08:11;426.40;;;319.43;;
4132;SDS011;2080;51.038;7.008;2022-08-20T04:10:42;403.70;;;275.93;;
4132;SDS011;2080;51.038;7.008;2022-08-20T04:13:09;409.40;;;281.50;;
4132;SDS011;2080;51.038;7.008;2022-08-20T04:15:37;392.70;;;255.47;;
4132;SDS011;2080;51.038;7.008;2022-08-20T04:18:04;418.80;;;316.87;;
4132;SDS011;2080;51.038;7.008;2022-08-20T04:20:32;415.47;;;278.10;;
4132;SDS011;2080;51.038;7.008;2022-08-20T04:22:58;415.87;;;299.30;;
4132;SDS011;2080;51.038;7.008;2022-08-20T04:25:29;394.23;;;258.60;;
4132;SDS011;2080;51.038;7.008;2022-08-20T04:27:57;371.77;;;206.93;;
4132;SDS011;2080;51.038;7.008;2022-08-20T04:30:23;384.20;;;239.63;;
4132;SDS011;2080;51.038;7.008;2022-08-20T04:32:50;399.00;;;257.50;;
4132;SDS011;2080;51.038;7.008;2022-08-20T04:35:16;394.47;;;253.40;;
4132;SDS011;2080;51.038;7.008;2022-08-20T04:37:45;377.07;;;216.67;;
4132;SDS011;2080;51.038;7.008;2022-08-20T04:40:12;378.77;;;214.87;;
4132;SDS011;2080;51.038;7.008;2022-08-20T04:42:58;351.03;;;170.37;;
4132;SDS011;2080;51.038;7.008;2022-08-20T04:45:26;362.53;;;191.67;;
4132;SDS011;2080;51.038;7.008;2022-08-20T04:47:54;381.10;;;234.57;;
4132;SDS011;2080;51.038;7.008;2022-08-20T04:50:30;384.50;;;238.10;;
4132;SDS011;2080;51.038;7.008;2022-08-20T04:53:02;398.03;;;257.60;;
4132;SDS011;2080;51.038;7.008;2022-08-20T04:55:32;399.13;;;261.17;;
4132;SDS011;2080;51.038;7.008;2022-08-20T04:58:04;420.10;;;307.63;;
4132;SDS011;2080;51.038;7.008;2022-08-20T05:00:31;432.27;;;327.43;;
4132;SDS011;2080;51.038;7.008;2022-08-20T05:03:00;422.60;;;304.63;;
4132;SDS011;2080;51.038;7.008;2022-08-20T05:05:25;439.17;;;343.60;;
4132;SDS011;2080;51.038;7.008;2022-08-20T05:07:52;454.77;;;376.50;;
4132;SDS011;2080;51.038;7.008;2022-08-20T05:10:22;408.27;;;292.90;;
4132;SDS011;2080;51.038;7.008;2022-08-20T05:12:48;414.13;;;271.57;;
4132;SDS011;2080;51.038;7.008;2022-08-20T05:15:14;425.67;;;306.47;;
4132;SDS011;2080;51.038;7.008;2022-08-20T05:17:40;401.90;;;265.03;;
4132;SDS011;2080;51.038;7.008;2022-08-20T05:20:08;395.90;;;269.30;;
4132;SDS011;2080;51.038;7.008;2022-08-20T05:22:38;374.47;;;226.17;;
4132;SDS011;2080;51.038;7.008;2022-08-20T05:25:04;381.00;;;225.20;;
4132;SDS011;2080;51.038;7.008;2022-08-20T05:27:30;374.57;;;202.20;;
4132;SDS011;2080;51.038;7.008;2022-08-20T05:29:59;382.47;;;237.20;;
4132;SDS011;2080;51.038;7.008;2022-08-20T05:32:31;428.33;;;287.57;;
4132;SDS011;2080;51.038;7.008;2022-08-20T05:35:01;678.70;;;616.10;;
4132;SDS011;2080;51.038;7.008;2022-08-20T05:37:29;573.43;;;517.47;;
4132;SDS011;2080;51.038;7.008;2022-08-20T05:39:55;635.07;;;573.37;;
4132;SDS011;2080;51.038;7.008;2022-08-20T05:42:21;692.10;;;627.90;;
4132;SDS011;2080;51.038;7.008;2022-08-20T05:44:46;731.60;;;666.43;;
4132;SDS011;2080;51.038;7.008;2022-08-20T05:47:14;713.03;;;647.17;;
4132;SDS011;2080;51.038;7.008;2022-08-20T05:49:42;706.97;;;643.00;;
4132;SDS011;2080;51.038;7.008;2022-08-20T05:52:10;658.23;;;597.17;;
4132;SDS011;2080;51.038;7.008;2022-08-20T05:54:38;759.90;;;692.80;;
4132;SDS011;2080;51.038;7.008;2022-08-20T05:57:03;703.10;;;639.47;;
4132;SDS011;2080;51.038;7.008;2022-08-20T05:59:29;675.93;;;612.70;;
4132;SDS011;2080;51.038;7.008;2022-08-20T06:02:00;740.83;;;673.00;;
4132;SDS011;2080;51.038;7.008;2022-08-20T06:04:49;631.30;;;571.37;;
4132;SDS011;2080;51.038;7.008;2022-08-20T06:07:14;648.03;;;588.03;;
4132;SDS011;2080;51.038;7.008;2022-08-20T06:09:40;660.03;;;597.23;;
4132;SDS011;2080;51.038;7.008;2022-08-20T06:12:08;684.23;;;619.77;;
4132;SDS011;2080;51.038;7.008;2022-08-20T06:14:33;708.57;;;639.93;;
4132;SDS011;2080;51.038;7.008;2022-08-20T06:17:03;620.43;;;560.50;;
4132;SDS011;2080;51.038;7.008;2022-08-20T06:19:28;613.37;;;555.20;;
4132;SDS011;2080;51.038;7.008;2022-08-20T06:21:54;605.53;;;546.30;;
4132;SDS011;2080;51.038;7.008;2022-08-20T06:24:20;612.77;;;552.30;;
4132;SDS011;2080;51.038;7.008;2022-08-20T06:26:45;549.30;;;491.50;;
4132;SDS011;2080;51.038;7.008;2022-08-20T06:29:11;601.70;;;542.80;;
4132;SDS011;2080;51.038;7.008;2022-08-20T06:31:38;596.90;;;537.60;;
4132;SDS011;2080;51.038;7.008;2022-08-20T06:34:06;494.17;;;429.83;;
4132;SDS011;2080;51.038;7.008;2022-08-20T06:36:31;530.83;;;475.47;;
4132;SDS011;2080;51.038;7.008;2022-08-20T06:38:59;542.77;;;485.93;;
4132;SDS011;2080;51.038;7.008;2022-08-20T06:41:24;576.73;;;516.77;;
4132;SDS011;2080;51.038;7.008;2022-08-20T06:43:50;523.00;;;458.10;;
4132;SDS011;2080;51.038;7.008;2022-08-20T06:46:20;535.17;;;447.60;;
4132;SDS011;2080;51.038;7.008;2022-08-20T06:48:47;558.67;;;501.27;;
4132;SDS011;2080;51.038;7.008;2022-08-20T06:51:15;459.63;;;391.93;;
4132;SDS011;2080;51.038;7.008;2022-08-20T06:53:40;437.83;;;328.20;;
4132;SDS011;2080;51.038;7.008;2022-08-20T06:56:07;448.53;;;346.00;;
4132;SDS011;2080;51.038;7.008;2022-08-20T06:58:33;459.60;;;378.67;;
4132;SDS011;2080;51.038;7.008;2022-08-20T07:01:00;609.60;;;550.97;;
4132;SDS011;2080;51.038;7.008;2022-08-20T07:03:26;612.90;;;552.67;;
4132;SDS011;2080;51.038;7.008;2022-08-20T07:05:54;501.33;;;445.50;;
4132;SDS011;2080;51.038;7.008;2022-08-20T07:08:19;837.77;;;758.63;;
4132;SDS011;2080;51.038;7.008;2022-08-20T07:10:46;418.17;;;275.70;;
4132;SDS011;2080;51.038;7.008;2022-08-20T07:13:12;597.53;;;525.67;;
4132;SDS011;2080;51.038;7.008;2022-08-20T07:15:39;411.33;;;274.33;;
4132;SDS011;2080;51.038;7.008;2022-08-20T07:18:07;440.73;;;280.57;;
4132;SDS011;2080;51.038;7.008;2022-08-20T07:20:35;429.20;;;310.80;;
4132;SDS011;2080;51.038;7.008;2022-08-20T07:23:04;417.50;;;255.80;;
4132;SDS011;2080;51.038;7.008;2022-08-20T07:25:30;379.03;;;201.87;;
4132;SDS011;2080;51.038;7.008;2022-08-20T07:28:04;533.00;;;435.00;;
4132;SDS011;2080;51.038;7.008;2022-08-20T07:30:43;820.53;;;745.43;;
4132;SDS011;2080;51.038;7.008;2022-08-20T07:33:27;863.70;;;785.67;;
4132;SDS011;2080;51.038;7.008;2022-08-20T07:35:56;778.63;;;702.83;;
4132;SDS011;2080;51.038;7.008;2022-08-20T07:38:24;823.63;;;749.77;;
4132;SDS011;2080;51.038;7.008;2022-08-20T07:40:51;629.60;;;560.67;;
4132;SDS011;2080;51.038;7.008;2022-08-20T07:43:23;765.73;;;693.90;;
4132;SDS011;2080;51.038;7.008;2022-08-20T07:45:50;488.90;;;413.53;;
4132;SDS011;2080;51.038;7.008;2022-08-20T07:48:19;906.37;;;821.83;;
4132;SDS011;2080;51.038;7.008;2022-08-20T07:50:49;585.33;;;527.13;;
4132;SDS011;2080;51.038;7.008;2022-08-20T07:53:15;994.03;;;904.13;;
4132;SDS011;2080;51.038;7.008;2022-08-20T07:55:41;1065.63;;;963.67;;
4132;SDS011;2080;51.038;7.008;2022-08-20T07:58:08;1147.30;;;999.90;;
4132;SDS011;2080;51.038;7.008;2022-08-20T08:00:38;1187.93;;;999.90;;
4132;SDS011;2080;51.038;7.008;2022-08-20T08:03:08;1009.43;;;915.40;;
4132;SDS011;2080;51.038;7.008;2022-08-20T08:05:37;1281.27;;;999.90;;
4132;SDS011;2080;51.038;7.008;2022-08-20T08:08:06;1191.60;;;999.90;;
4132;SDS011;2080;51.038;7.008;2022-08-20T08:10:34;1140.10;;;986.70;;
4132;SDS011;2080;51.038;7.008;2022-08-20T08:13:07;1198.97;;;999.90;;
4132;SDS011;2080;51.038;7.008;2022-08-20T08:15:36;1216.03;;;999.90;;
4132;SDS011;2080;51.038;7.008;2022-08-20T08:18:08;1237.30;;;999.90;;
4132;SDS011;2080;51.038;7.008;2022-08-20T08:20:41;1009.27;;;915.20;;
4132;SDS011;2080;51.038;7.008;2022-08-20T08:23:09;1151.20;;;999.90;;
4132;SDS011;2080;51.038;7.008;2022-08-20T08:25:39;1195.87;;;993.27;;
4132;SDS011;2080;51.038;7.008;2022-08-20T08:28:09;1201.97;;;999.90;;
4132;SDS011;2080;51.038;7.008;2022-08-20T08:30:38;1103.27;;;994.67;;
4132;SDS011;2080;51.038;7.008;2022-08-20T08:33:06;796.37;;;718.47;;
4132;SDS011;2080;51.038;7.008;2022-08-20T08:36:12;1100.57;;;989.17;;
4132;SDS011;2080;51.038;7.008;2022-08-20T08:38:43;1211.73;;;999.90;;
4132;SDS011;2080;51.038;7.008;2022-08-20T08:41:24;985.43;;;893.13;;
4132;SDS011;2080;51.038;7.008;2022-08-20T08:46:48;644.40;;;566.20;;
4132;SDS011;2080;51.038;7.008;2022-08-20T08:49:20;743.73;;;672.57;;
4132;SDS011;2080;51.038;7.008;2022-08-20T08:51:52;1184.40;;;999.90;;
4132;SDS011;2080;51.038;7.008;2022-08-20T08:54:22;1079.07;;;977.57;;
4132;SDS011;2080;51.038;7.008;2022-08-20T08:56:53;928.67;;;841.23;;
4132;SDS011;2080;51.038;7.008;2022-08-20T08:59:19;1204.80;;;999.90;;
4132;SDS011;2080;51.038;7.008;2022-08-20T09:01:47;1199.47;;;999.90;;
4132;SDS011;2080;51.038;7.008;2022-08-20T09:04:18;1281.63;;;999.90;;
4132;SDS011;2080;51.038;7.008;2022-08-20T09:06:46;1030.73;;;937.23;;
4132;SDS011;2080;51.038;7.008;2022-08-20T09:09:16;1143.53;;;999.90;;
4132;SDS011;2080;51.038;7.008;2022-08-20T09:11:51;1134.67;;;999.90;;
4132;SDS011;2080;51.038;7.008;2022-08-20T09:14:19;1163.43;;;999.90;;
4132;SDS011;2080;51.038;7.008;2022-08-20T09:16:44;1200.87;;;999.90;;
4132;SDS011;2080;51.038;7.008;2022-08-20T09:19:16;1117.30;;;999.90;;
4132;SDS011;2080;51.038;7.008;2022-08-20T09:21:41;748.20;;;673.90;;
4132;SDS011;2080;51.038;7.008;2022-08-20T09:24:08;1106.40;;;996.07;;
4132;SDS011;2080;51.038;7.008;2022-08-20T09:26:36;1116.43;;;994.83;;
4132;SDS011;2080;51.038;7.008;2022-08-20T09:29:04;1201.77;;;999.90;;
4132;SDS011;2080;51.038;7.008;2022-08-20T09:31:29;1226.23;;;999.90;;
4132;SDS011;2080;51.038;7.008;2022-08-20T09:33:58;1144.80;;;999.90;;
4132;SDS011;2080;51.038;7.008;2022-08-20T09:36:27;1171.17;;;999.90;;
4132;SDS011;2080;51.038;7.008;2022-08-20T09:38:53;1209.07;;;999.90;;
4132;SDS011;2080;51.038;7.008;2022-08-20T09:41:21;888.37;;;807.37;;
4132;SDS011;2080;51.038;7.008;2022-08-20T09:43:47;859.83;;;778.30;;
4132;SDS011;2080;51.038;7.008;2022-08-20T09:46:12;922.30;;;837.60;;
4132;SDS011;2080;51.038;7.008;2022-08-20T09:48:40;449.73;;;278.37;;
4132;SDS011;2080;51.038;7.008;2022-08-20T09:51:05;1076.27;;;975.27;;
4132;SDS011;2080;51.038;7.008;2022-08-20T09:53:31;931.03;;;847.93;;
4132;SDS011;2080;51.038;7.008;2022-08-20T09:55:57;821.87;;;749.63;;
4132;SDS011;2080;51.038;7.008;2022-08-20T09:58:34;877.17;;;797.73;;
4132;SDS011;2080;51.038;7.008;2022-08-20T10:01:01;427.63;;;287.47;;
4132;SDS011;2080;51.038;7.008;2022-08-20T10:03:35;736.63;;;670.27;;
4132;SDS011;2080;51.038;7.008;2022-08-20T10:06:01;498.20;;;420.43;;
4132;SDS011;2080;51.038;7.008;2022-08-20T10:08:28;500.20;;;436.70;;
4132;SDS011;2080;51.038;7.008;2022-08-20T10:10:54;438.60;;;308.97;;
4132;SDS011;2080;51.038;7.008;2022-08-20T10:13:21;367.03;;;99.40;;
4132;SDS011;2080;51.038;7.008;2022-08-20T10:15:47;431.53;;;255.90;;
4132;SDS011;2080;51.038;7.008;2022-08-20T10:18:15;520.93;;;462.97;;
4132;SDS011;2080;51.038;7.008;2022-08-20T10:20:40;440.20;;;279.37;;
4132;SDS011;2080;51.038;7.008;2022-08-20T10:23:06;373.43;;;97.60;;
4132;SDS011;2080;51.038;7.008;2022-08-20T10:25:31;630.63;;;569.47;;
4132;SDS011;2080;51.038;7.008;2022-08-20T10:27:56;469.87;;;329.83;;
4132;SDS011;2080;51.038;7.008;2022-08-20T10:30:25;440.83;;;241.00;;
4132;SDS011;2080;51.038;7.008;2022-08-20T10:32:50;388.40;;;158.00;;
4132;SDS011;2080;51.038;7.008;2022-08-20T10:35:16;678.47;;;611.50;;
4132;SDS011;2080;51.038;7.008;2022-08-20T10:37:44;699.30;;;632.43;;
4132;SDS011;2080;51.038;7.008;2022-08-20T10:40:13;561.77;;;503.37;;
4132;SDS011;2080;51.038;7.008;2022-08-20T10:42:42;711.60;;;644.83;;
4132;SDS011;2080;51.038;7.008;2022-08-20T10:45:10;829.07;;;757.53;;
4132;SDS011;2080;51.038;7.008;2022-08-20T10:47:42;714.27;;;649.17;;
4132;SDS011;2080;51.038;7.008;2022-08-20T10:50:09;695.73;;;632.20;;
4132;SDS011;2080;51.038;7.008;2022-08-20T10:52:38;586.37;;;529.07;;
4132;SDS011;2080;51.038;7.008;2022-08-20T10:55:04;484.63;;;419.93;;
4132;SDS011;2080;51.038;7.008;2022-08-20T10:57:32;493.20;;;399.27;;
4132;SDS011;2080;51.038;7.008;2022-08-20T10:59:58;475.77;;;375.40;;
4132;SDS011;2080;51.038;7.008;2022-08-20T11:02:24;451.13;;;306.80;;
4132;SDS011;2080;51.038;7.008;2022-08-20T11:04:51;491.83;;;438.27;;
4132;SDS011;2080;51.038;7.008;2022-08-20T11:09:42;446.30;;;349.10;;
4132;SDS011;2080;51.038;7.008;2022-08-20T11:12:09;401.50;;;180.87;;
4132;SDS011;2080;51.038;7.008;2022-08-20T11:14:38;498.10;;;441.17;;
4132;SDS011;2080;51.038;7.008;2022-08-20T11:17:04;490.17;;;437.27;;
4132;SDS011;2080;51.038;7.008;2022-08-20T11:19:36;487.93;;;430.30;;
4132;SDS011;2080;51.038;7.008;2022-08-20T11:22:06;546.47;;;490.67;;
4132;SDS011;2080;51.038;7.008;2022-08-20T11:24:34;480.07;;;406.53;;
4132;SDS011;2080;51.038;7.008;2022-08-20T11:27:04;389.80;;;173.57;;
4132;SDS011;2080;51.038;7.008;2022-08-20T11:29:32;399.00;;;171.80;;
4132;SDS011;2080;51.038;7.008;2022-08-20T11:31:58;422.40;;;228.63;;
4132;SDS011;2080;51.038;7.008;2022-08-20T11:34:23;414.00;;;217.40;;
4132;SDS011;2080;51.038;7.008;2022-08-20T11:36:49;388.80;;;200.87;;
4132;SDS011;2080;51.038;7.008;2022-08-20T11:39:18;469.00;;;319.00;;
4132;SDS011;2080;51.038;7.008;2022-08-20T11:41:43;453.53;;;390.67;;
4132;SDS011;2080;51.038;7.008;2022-08-20T11:44:13;440.57;;;358.17;;
4132;SDS011;2080;51.038;7.008;2022-08-20T11:46:43;435.43;;;341.50;;
4132;SDS011;2080;51.038;7.008;2022-08-20T11:49:09;436.07;;;322.30;;
4132;SDS011;2080;51.038;7.008;2022-08-20T11:51:34;463.10;;;355.43;;
4132;SDS011;2080;51.038;7.008;2022-08-20T11:54:03;425.30;;;264.80;;
4132;SDS011;2080;51.038;7.008;2022-08-20T11:56:31;503.37;;;448.87;;
4132;SDS011;2080;51.038;7.008;2022-08-20T11:58:59;434.67;;;272.30;;
4132;SDS011;2080;51.038;7.008;2022-08-20T12:01:27;437.90;;;324.77;;
4132;SDS011;2080;51.038;7.008;2022-08-20T12:03:55;408.30;;;186.90;;
4132;SDS011;2080;51.038;7.008;2022-08-20T12:06:23;439.60;;;330.57;;
4132;SDS011;2080;51.038;7.008;2022-08-20T12:08:50;439.40;;;305.27;;
4132;SDS011;2080;51.038;7.008;2022-08-20T12:11:16;645.80;;;583.27;;
4132;SDS011;2080;51.038;7.008;2022-08-20T12:13:41;423.60;;;284.00;;
4132;SDS011;2080;51.038;7.008;2022-08-20T12:16:06;758.43;;;689.03;;
4132;SDS011;2080;51.038;7.008;2022-08-20T12:18:32;505.47;;;441.97;;
4132;SDS011;2080;51.038;7.008;2022-08-20T12:20:57;725.30;;;658.63;;
4132;SDS011;2080;51.038;7.008;2022-08-20T12:23:23;428.53;;;260.50;;
4132;SDS011;2080;51.038;7.008;2022-08-20T12:25:48;450.93;;;317.10;;
4132;SDS011;2080;51.038;7.008;2022-08-20T12:28:17;460.27;;;324.80;;
4132;SDS011;2080;51.038;7.008;2022-08-20T12:30:42;455.57;;;319.70;;
4132;SDS011;2080;51.038;7.008;2022-08-20T12:33:10;446.53;;;302.70;;
4132;SDS011;2080;51.038;7.008;2022-08-20T12:35:37;463.03;;;339.60;;
4132;SDS011;2080;51.038;7.008;2022-08-20T12:38:04;425.90;;;244.07;;
4132;SDS011;2080;51.038;7.008;2022-08-20T12:40:30;402.97;;;198.73;;
4132;SDS011;2080;51.038;7.008;2022-08-20T12:42:56;371.30;;;146.67;;
4132;SDS011;2080;51.038;7.008;2022-08-20T12:45:24;364.97;;;91.20;;
4132;SDS011;2080;51.038;7.008;2022-08-20T12:47:49;334.50;;;77.90;;
4132;SDS011;2080;51.038;7.008;2022-08-20T12:50:16;392.87;;;142.83;;
4132;SDS011;2080;51.038;7.008;2022-08-20T12:52:46;377.60;;;155.50;;
4132;SDS011;2080;51.038;7.008;2022-08-20T12:55:13;441.00;;;259.07;;
4132;SDS011;2080;51.038;7.008;2022-08-20T12:57:44;373.77;;;99.17;;
4132;SDS011;2080;51.038;7.008;2022-08-20T13:00:14;377.03;;;140.73;;
4132;SDS011;2080;51.038;7.008;2022-08-20T13:02:49;367.93;;;120.17;;
4132;SDS011;2080;51.038;7.008;2022-08-20T13:05:15;386.37;;;120.00;;
4132;SDS011;2080;51.038;7.008;2022-08-20T13:07:42;345.93;;;78.37;;
4132;SDS011;2080;51.038;7.008;2022-08-20T13:10:09;363.87;;;80.53;;
4132;SDS011;2080;51.038;7.008;2022-08-20T13:12:38;398.87;;;176.77;;
4132;SDS011;2080;51.038;7.008;2022-08-20T13:15:06;388.93;;;147.87;;
4132;SDS011;2080;51.038;7.008;2022-08-20T13:17:32;335.67;;;44.20;;
4132;SDS011;2080;51.038;7.008;2022-08-20T13:19:57;435.23;;;240.97;;
4132;SDS011;2080;51.038;7.008;2022-08-20T13:22:25;397.00;;;177.37;;
4132;SDS011;2080;51.038;7.008;2022-08-20T13:24:50;334.10;;;62.90;;
4132;SDS011;2080;51.038;7.008;2022-08-20T13:27:17;394.90;;;144.73;;
4132;SDS011;2080;51.038;7.008;2022-08-20T13:29:50;360.23;;;55.13;;
4132;SDS011;2080;51.038;7.008;2022-08-20T13:32:18;322.73;;;43.63;;
4132;SDS011;2080;51.038;7.008;2022-08-20T13:34:44;330.63;;;46.13;;
4132;SDS011;2080;51.038;7.008;2022-08-20T13:39:49;325.73;;;48.37;;
4132;SDS011;2080;51.038;7.008;2022-08-20T13:42:17;334.17;;;45.27;;
4132;SDS011;2080;51.038;7.008;2022-08-20T13:44:42;332.83;;;42.13;;
4132;SDS011;2080;51.038;7.008;2022-08-20T13:47:14;341.10;;;53.97;;
4132;SDS011;2080;51.038;7.008;2022-08-20T13:49:43;323.23;;;40.23;;
4132;SDS011;2080;51.038;7.008;2022-08-20T13:52:09;317.23;;;42.70;;
4132;SDS011;2080;51.038;7.008;2022-08-20T13:54:34;343.80;;;63.60;;
4132;SDS011;2080;51.038;7.008;2022-08-20T13:57:18;337.73;;;41.63;;
4132;SDS011;2080;51.038;7.008;2022-08-20T13:59:51;328.67;;;47.07;;
4132;SDS011;2080;51.038;7.008;2022-08-20T14:02:19;386.63;;;148.83;;
4132;SDS011;2080;51.038;7.008;2022-08-20T14:04:48;324.73;;;46.90;;
4132;SDS011;2080;51.038;7.008;2022-08-20T14:07:15;361.57;;;117.40;;
4132;SDS011;2080;51.038;7.008;2022-08-20T14:09:50;327.47;;;47.90;;
4132;SDS011;2080;51.038;7.008;2022-08-20T14:12:28;360.60;;;98.47;;
4132;SDS011;2080;51.038;7.008;2022-08-20T14:14:54;333.17;;;41.17;;
4132;SDS011;2080;51.038;7.008;2022-08-20T14:17:29;336.77;;;43.67;;
4132;SDS011;2080;51.038;7.008;2022-08-20T14:19:58;319.03;;;39.57;;
4132;SDS011;2080;51.038;7.008;2022-08-20T14:22:26;311.73;;;35.13;;
4132;SDS011;2080;51.038;7.008;2022-08-20T14:24:54;323.13;;;40.83;;
4132;SDS011;2080;51.038;7.008;2022-08-20T14:27:20;327.00;;;42.67;;
4132;SDS011;2080;51.038;7.008;2022-08-20T14:29:49;326.07;;;40.30;;
4132;SDS011;2080;51.038;7.008;2022-08-20T14:32:15;350.33;;;45.30;;
4132;SDS011;2080;51.038;7.008;2022-08-20T14:34:41;339.17;;;41.07;;
4132;SDS011;2080;51.038;7.008;2022-08-20T14:37:17;327.23;;;41.57;;
4132;SDS011;2080;51.038;7.008;2022-08-20T14:39:47;390.20;;;155.27;;
4132;SDS011;2080;51.038;7.008;2022-08-20T14:42:23;316.40;;;39.33;;
4132;SDS011;2080;51.038;7.008;2022-08-20T14:44:51;358.73;;;70.47;;
4132;SDS011;2080;51.038;7.008;2022-08-20T14:47:18;333.43;;;38.40;;
4132;SDS011;2080;51.038;7.008;2022-08-20T14:49:48;359.53;;;116.30;;